Sea-land Charger — WDB9948 — position and weather

sailwx.info

Track history (hours):
 
Tides and Currents Weather Stations Pressure Air Temp Water Temp Dewpoint Dewpoint Depression Visibility Wind Speed Wind Dir Waves Ship Positions

Sea-land Charger

More information available from US FCC via Universal Licensing System.

Last reported at 2014-Aug-21 01:27 UTC. Time now 2014-Aug-21 02:28 UTC.
Position N 35°57' E 120°46'.

Type: Cargo ship. MMSI: 303279000.

Date/timePositionNaut miles runAvg speedWind from/ knotsBaromVisibWave heightAir tempDewpointWater temp
2014-Aug-21 01:27N 35°57' E 120°46'33810.7
2014-Aug-19 18:00N 33°48' E 127°06'320 6.7 030 / 51011.2 5.4
2014-Aug-17 18:00N 32°54' E 133°24'9810.9 180 / 131014.6
2014-Aug-17 09:04N 33°55' E 134°55'611.8
2014-Aug-17 08:33N 34°01' E 134°56'1211.8
2014-Aug-17 07:33N 34°13' E 134°57'1514.5
2014-Aug-17 06:33N 34°26' E 135°05'1615.8
2014-Aug-17 05:33N 34°39' E 135°16'2 1.6
2014-Aug-17 04:28N 34°41' E 135°16'0 0.0
2014-Aug-17 03:33N 34°41' E 135°16'0 0.0
2014-Aug-17 02:33N 34°41' E 135°16'0 0.0
2014-Aug-17 01:33N 34°41' E 135°16'0 0.1
2014-Aug-17 00:33N 34°41' E 135°16'5 5.4
2014-Aug-16 23:33N 34°35' E 135°16'1312.8
2014-Aug-16 22:33N 34°25' E 135°06'1211.9
2014-Aug-16 21:33N 34°14' E 135°00'10 9.4
2014-Aug-16 20:32N 34°05' E 134°60'2911.5
2014-Aug-16 18:00N 33°36' E 135°06'16313.6 180 / 151011.2
2014-Aug-16 06:00N 34°12' E 138°18'7313.4 210 / 141011.2
2014-Aug-16 00:33N 34°48' E 139°35'1616.3
2014-Aug-15 23:34N 35°03' E 139°42'1312.8
2014-Aug-15 22:33N 35°16' E 139°46'9 9.4
2014-Aug-15 21:34N 35°24' E 139°41'0 0.3
2014-Aug-15 20:32N 35°24' E 139°41'0 0.0
2014-Aug-15 19:34N 35°24' E 139°41'0 0.0
2014-Aug-15 18:33N 35°24' E 139°41'0 0.0
2014-Aug-15 17:33N 35°24' E 139°41'0 0.0
2014-Aug-15 16:33N 35°24' E 139°41'0 0.0
2014-Aug-15 15:33N 35°24' E 139°41'1 0.8
2014-Aug-15 14:33N 35°23' E 139°41'9 9.3
2014-Aug-15 13:33N 35°15' E 139°47'10 9.8
2014-Aug-15 12:33N 35°06' E 139°46'1010.2
2014-Aug-15 11:33N 34°56' E 139°42'1210.1
2014-Aug-15 10:19N 34°51' E 139°56'811.0
2014-Aug-15 09:33N 34°53' E 140°06'6110.1
2014-Aug-15 03:30N 35°33' E 141°03'14 9.9
2014-Aug-15 02:07N 35°43' E 141°14'31111.9
2014-Aug-14 00:00N 39°30' E 145°42'23413.0 320 / 71012.010.8 1.024.021.024.0
2014-Aug-13 06:00N 42°18' E 149°18'14612.1 220 / 51009.0
2014-Aug-12 18:00N 43°54' E 151°48'7011.7 999 / 31006.5 0.1 19.017.417.0
2014-Aug-12 12:00N 44°42' E 153°00'22712.6 250 / 171008.0 0.1 2.017.015.314.0
2014-Aug-11 18:00N 47°06' E 157°12'8714.6 200 / 101014.0 5.4 0.512.011.014.0
2014-Aug-11 12:00N 48°00' E 158°54'7612.7 270 / 151015.9
2014-Aug-11 06:00N 48°42' E 160°30'   290 / 201011.5 5.4 2.014.011.213.0
Track history (hours):
 
Tides and Currents Weather Stations Pressure Air Temp Water Temp Dewpoint Dewpoint Depression Visibility Wind Speed Wind Dir Waves Ship Positions

Sea-land Charger

More information available from US FCC via Universal Licensing System.

Last reported at 2014-Aug-21 01:27 UTC. Time now 2014-Aug-21 02:28 UTC.
Position N 35°57' E 120°46'.

Type: Cargo ship. MMSI: 303279000.

Date/timePositionNaut miles runAvg speedWind from/ knotsBaromVisibWave heightAir tempDewpointWater temp
2014-Aug-21 01:27N 35°57' E 120°46'33810.7
2014-Aug-19 18:00N 33°48' E 127°06'320 6.7 030 / 51011.2 5.4
2014-Aug-17 18:00N 32°54' E 133°24'9810.9 180 / 131014.6
2014-Aug-17 09:04N 33°55' E 134°55'611.8
2014-Aug-17 08:33N 34°01' E 134°56'1211.8
2014-Aug-17 07:33N 34°13' E 134°57'1514.5
2014-Aug-17 06:33N 34°26' E 135°05'1615.8
2014-Aug-17 05:33N 34°39' E 135°16'2 1.6
2014-Aug-17 04:28N 34°41' E 135°16'0 0.0
2014-Aug-17 03:33N 34°41' E 135°16'0 0.0
2014-Aug-17 02:33N 34°41' E 135°16'0 0.0
2014-Aug-17 01:33N 34°41' E 135°16'0 0.1
2014-Aug-17 00:33N 34°41' E 135°16'5 5.4
2014-Aug-16 23:33N 34°35' E 135°16'1312.8
2014-Aug-16 22:33N 34°25' E 135°06'1211.9
2014-Aug-16 21:33N 34°14' E 135°00'10 9.4
2014-Aug-16 20:32N 34°05' E 134°60'2911.5
2014-Aug-16 18:00N 33°36' E 135°06'16313.6 180 / 151011.2
2014-Aug-16 06:00N 34°12' E 138°18'7313.4 210 / 141011.2
2014-Aug-16 00:33N 34°48' E 139°35'1616.3
2014-Aug-15 23:34N 35°03' E 139°42'1312.8
2014-Aug-15 22:33N 35°16' E 139°46'9 9.4
2014-Aug-15 21:34N 35°24' E 139°41'0 0.3
2014-Aug-15 20:32N 35°24' E 139°41'0 0.0
2014-Aug-15 19:34N 35°24' E 139°41'0 0.0
2014-Aug-15 18:33N 35°24' E 139°41'0 0.0
2014-Aug-15 17:33N 35°24' E 139°41'0 0.0
2014-Aug-15 16:33N 35°24' E 139°41'0 0.0
2014-Aug-15 15:33N 35°24' E 139°41'1 0.8
2014-Aug-15 14:33N 35°23' E 139°41'9 9.3
2014-Aug-15 13:33N 35°15' E 139°47'10 9.8
2014-Aug-15 12:33N 35°06' E 139°46'1010.2
2014-Aug-15 11:33N 34°56' E 139°42'1210.1
2014-Aug-15 10:19N 34°51' E 139°56'811.0
2014-Aug-15 09:33N 34°53' E 140°06'6110.1
2014-Aug-15 03:30N 35°33' E 141°03'14 9.9
2014-Aug-15 02:07N 35°43' E 141°14'31111.9
2014-Aug-14 00:00N 39°30' E 145°42'23413.0 320 / 71012.010.8 1.024.021.024.0
2014-Aug-13 06:00N 42°18' E 149°18'14612.1 220 / 51009.0
2014-Aug-12 18:00N 43°54' E 151°48'7011.7 999 / 31006.5 0.1 19.017.417.0
2014-Aug-12 12:00N 44°42' E 153°00'22712.6 250 / 171008.0 0.1 2.017.015.314.0
2014-Aug-11 18:00N 47°06' E 157°12'8714.6 200 / 101014.0 5.4 0.512.011.014.0
2014-Aug-11 12:00N 48°00' E 158°54'7612.7 270 / 151015.9
2014-Aug-11 06:00N 48°42' E 160°30'   290 / 201011.5 5.4 2.014.011.213.0

Dump ship's entire track history